Bookmark and Share
Track history (hours):
 

R.l. Enterkin

More information available from US FCC via Universal Licensing System and Coast Guard Vessel Documentation Center.

Last reported at 2014-Apr-23 12:33 UTC. Time now 2014-Apr-23 13:15 UTC.
Position N 40°51' W 072°29'.

Length 60 m; draft 2.6 m.

Type: Tug. MMSI: 367314080.

NotesDate/timePositionNaut miles runAvg speedWind from/ knotsBaromVisibWave heightAir tempDewpointWater temp
2014-Apr-23 12:33N 40°51' W 072°29'0 0.0
2014-Apr-23 11:33N 40°51' W 072°29'0 0.0
2014-Apr-23 10:33N 40°51' W 072°29'0 0.0
2014-Apr-23 09:33N 40°51' W 072°29'0 0.0
2014-Apr-23 08:32N 40°51' W 072°29'0 0.0
2014-Apr-23 07:33N 40°51' W 072°29'0 0.0
2014-Apr-23 06:33N 40°51' W 072°29'0 0.0
2014-Apr-23 05:33N 40°51' W 072°29'0 0.0
2014-Apr-23 04:33N 40°51' W 072°29'0 0.0
2014-Apr-23 03:33N 40°51' W 072°29'0 0.0
2014-Apr-23 02:33N 40°51' W 072°29'0 0.0
2014-Apr-23 01:33N 40°51' W 072°29'3 3.2
2014-Apr-23 00:33N 40°48' W 072°32'10 8.7
2014-Apr-22 23:27N 40°45' W 072°44'8 8.8
2014-Apr-22 22:33N 40°42' W 072°54'9 8.9
2014-Apr-22 21:33N 40°39' W 073°04'10 9.1
2014-Apr-22 20:30N 40°36' W 073°17'18 8.9
2014-Apr-22 18:29N 40°33' W 073°40'16 7.7
2014-Apr-22 16:23N 40°33' W 074°01'7 8.1
2014-Apr-22 15:33N 40°39' W 074°05'2 2.3
2014-Apr-22 14:31N 40°40' W 074°08'2 1.9
2014-Apr-22 13:33N 40°39' W 074°06'3 2.7
2014-Apr-22 12:33N 40°37' W 074°03'2 1.9
2014-Apr-22 11:33N 40°36' W 074°02'4 3.6
2014-Apr-22 10:33N 40°39' W 074°04'4 1.6
2014-Apr-22 08:20N 40°38' W 074°09'0 0.0
2014-Apr-22 05:06N 40°38' W 074°09'0 0.0
2014-Apr-22 04:25N 40°38' W 074°09'0 0.0
2014-Apr-22 02:25N 40°38' W 074°09'3 3.8
2014-Apr-22 01:33N 40°39' W 074°05'7 7.1
2014-Apr-22 00:33N 40°32' W 074°01'8 7.8
2014-Apr-21 23:33N 40°32' W 073°51'10 8.6
2014-Apr-21 22:25N 40°33' W 073°38'8 8.6
2014-Apr-21 21:30N 40°35' W 073°28'8 8.5
2014-Apr-21 20:34N 40°36' W 073°17'9 8.5
2014-Apr-21 19:33N 40°38' W 073°06'9 8.9
2014-Apr-21 18:32N 40°42' W 072°55'9 9.3
2014-Apr-21 17:33N 40°45' W 072°44'9 9.2
2014-Apr-21 16:33N 40°48' W 072°33'4 4.2
2014-Apr-21 15:33N 40°51' W 072°29'0 0.2
2014-Apr-21 14:33N 40°51' W 072°29'0 0.0
2014-Apr-21 13:33N 40°51' W 072°29'0 0.2
2014-Apr-21 12:33N 40°51' W 072°29'0 0.2
2014-Apr-21 11:34N 40°51' W 072°29'0 0.4
2014-Apr-21 10:34N 40°51' W 072°29'0 0.0
2014-Apr-21 09:34N 40°51' W 072°29'0 0.0
2014-Apr-21 08:34N 40°51' W 072°29'0 0.0
2014-Apr-21 07:33N 40°51' W 072°29'0 0.0
2014-Apr-21 06:34N 40°51' W 072°29'0 0.0
2014-Apr-21 05:33N 40°51' W 072°29'0 0.0
2014-Apr-21 04:33N 40°51' W 072°29'0 0.0
2014-Apr-21 03:33N 40°51' W 072°29'2 2.2
2014-Apr-21 02:31N 40°49' W 072°30'8 8.2
2014-Apr-21 01:30N 40°46' W 072°41'8 8.1
2014-Apr-21 00:32N 40°43' W 072°51'8 7.9
2014-Apr-20 23:33N 40°40' W 072°60'47 7.9
2014-Apr-20 17:33N 40°35' W 074°02'6 6.2
2014-Apr-20 16:33N 40°38' W 074°09'2 1.9
2014-Apr-20 15:30N 40°40' W 074°08'2 2.1
2014-Apr-20 14:33N 40°38' W 074°09'4 4.3
2014-Apr-20 13:33N 40°38' W 074°03'3 3.0
2014-Apr-20 12:33N 40°35' W 074°02'1 0.6
2014-Apr-20 11:31N 40°35' W 074°02'6 6.4
2014-Apr-20 10:31N 40°38' W 074°09'0 0.0
2014-Apr-20 08:23N 40°38' W 074°09'0 0.0
2014-Apr-20 07:33N 40°38' W 074°09'0 0.0
2014-Apr-20 04:30N 40°38' W 074°09'0 0.0
2014-Apr-20 03:20N 40°38' W 074°09'0 0.0
2014-Apr-20 02:31N 40°38' W 074°09'4 4.5
2014-Apr-20 01:33N 40°39' W 074°03'6 6.3
2014-Apr-20 00:32N 40°32' W 074°01'11 5.4
2014-Apr-19 22:32N 40°32' W 073°47'15 6.8
2014-Apr-19 20:19N 40°35' W 073°27'5 6.7
2014-Apr-19 19:30N 40°35' W 073°20'19 6.4
2014-Apr-19 16:32N 40°41' W 072°56'7 6.7
2014-Apr-19 15:33N 40°44' W 072°48'7 6.8
2014-Apr-19 14:32N 40°46' W 072°40'4 3.7
2014-Apr-19 13:34N 40°47' W 072°35'6 5.8
2014-Apr-19 12:34N 40°50' W 072°29'0 0.5
2014-Apr-19 11:33N 40°51' W 072°29'0 0.2
2014-Apr-19 10:33N 40°51' W 072°29'0 0.0
2014-Apr-19 09:33N 40°51' W 072°29'0 0.0
2014-Apr-19 08:33N 40°51' W 072°29'0 0.0
2014-Apr-19 07:33N 40°51' W 072°29'0 0.0
2014-Apr-19 06:33N 40°51' W 072°29'0 0.0
2014-Apr-19 05:33N 40°51' W 072°29'0 0.0
2014-Apr-19 04:34N 40°51' W 072°29'0 0.0
2014-Apr-19 03:33N 40°51' W 072°29'0 0.0
2014-Apr-19 02:33N 40°51' W 072°29'0 0.0
2014-Apr-19 01:33N 40°51' W 072°29'0 0.0
2014-Apr-19 00:33N 40°51' W 072°29'0 0.0
2014-Apr-18 23:33N 40°51' W 072°29'0 0.0
2014-Apr-18 22:33N 40°51' W 072°29'0 0.0
2014-Apr-18 21:33N 40°51' W 072°29'0 0.0
2014-Apr-18 20:33N 40°51' W 072°29'0 0.0
2014-Apr-18 19:33N 40°51' W 072°29'0 0.2
2014-Apr-18 18:34N 40°51' W 072°29'0 0.0
2014-Apr-18 17:33N 40°51' W 072°29'0 0.0
2014-Apr-18 16:33N 40°51' W 072°29'0 0.0
2014-Apr-18 15:33N 40°51' W 072°29'0 0.0
2014-Apr-18 14:33N 40°51' W 072°29'0 0.1
2014-Apr-18 13:30N 40°51' W 072°29'0 0.0
2014-Apr-18 12:31N 40°51' W 072°29'0 0.0
2014-Apr-18 11:32N 40°51' W 072°29'0 0.3
2014-Apr-18 10:33N 40°51' W 072°29'0 0.0
2014-Apr-18 09:33N 40°51' W 072°29'0 0.0
2014-Apr-18 08:33N 40°51' W 072°29'0 0.0
2014-Apr-18 07:33N 40°51' W 072°29'0 0.0
2014-Apr-18 06:33N 40°51' W 072°29'0 0.0
2014-Apr-18 05:33N 40°51' W 072°29'0 0.0
2014-Apr-18 04:33N 40°51' W 072°29'0 0.0
2014-Apr-18 03:33N 40°51' W 072°29'0 0.0
2014-Apr-18 02:34N 40°51' W 072°29'0 0.0
2014-Apr-18 01:33N 40°51' W 072°29'0 0.0
2014-Apr-18 00:33N 40°51' W 072°29'0 0.0
2014-Apr-17 23:33N 40°51' W 072°29'0 0.0
2014-Apr-17 22:34N 40°51' W 072°29'0 0.0
2014-Apr-17 21:33N 40°51' W 072°29'0 0.0
2014-Apr-17 20:33N 40°51' W 072°29'0 0.0
2014-Apr-17 19:33N 40°51' W 072°29'0 0.0
2014-Apr-17 18:33N 40°51' W 072°29'0 0.0
2014-Apr-17 17:33N 40°51' W 072°29'0 0.0
2014-Apr-17 16:33N 40°51' W 072°29'0 0.3
2014-Apr-17 15:33N 40°51' W 072°29'0 0.0
2014-Apr-17 14:32N 40°51' W 072°29'0 0.0
2014-Apr-17 13:33N 40°51' W 072°29'0 0.0
2014-Apr-17 12:33N 40°51' W 072°29'0 0.0
2014-Apr-17 11:33N 40°51' W 072°29'0 0.3
2014-Apr-17 10:33N 40°51' W 072°29'0 0.0
2014-Apr-17 09:33N 40°51' W 072°29'0 0.0
2014-Apr-17 08:33N 40°51' W 072°29'0 0.0
2014-Apr-17 07:33N 40°51' W 072°29'0 0.0
2014-Apr-17 06:33N 40°51' W 072°29'0 0.0
2014-Apr-17 05:33N 40°51' W 072°29'0 0.0
2014-Apr-17 04:33N 40°51' W 072°29'0 0.0
2014-Apr-17 03:33N 40°51' W 072°29'0 0.0
2014-Apr-17 02:33N 40°51' W 072°29'0 0.0
2014-Apr-17 01:33N 40°51' W 072°29'0 0.0
2014-Apr-17 00:33N 40°51' W 072°29'0 0.0
2014-Apr-16 23:33N 40°51' W 072°29'0 0.0
2014-Apr-16 22:33N 40°51' W 072°29'0 0.0
2014-Apr-16 21:33N 40°51' W 072°29'0 0.0
2014-Apr-16 20:33N 40°51' W 072°29'0 0.0
2014-Apr-16 19:33N 40°51' W 072°29'0 0.0
2014-Apr-16 18:33N 40°51' W 072°29'0 0.0
2014-Apr-16 17:33N 40°51' W 072°29'0 0.0
2014-Apr-16 16:33N 40°51' W 072°29'0 0.0
2014-Apr-16 15:33N 40°51' W 072°29'0 0.3
2014-Apr-16 14:33N 40°51' W 072°29'0 0.0
2014-Apr-16 13:33N 40°51' W 072°29'0 0.0
2014-Apr-16 12:33N 40°51' W 072°29'0 0.0
2014-Apr-16 11:33N 40°51' W 072°29'0 0.3
2014-Apr-16 10:33N 40°51' W 072°29'0 0.0
2014-Apr-16 09:33N 40°51' W 072°29'0 0.0
2014-Apr-16 08:33N 40°51' W 072°29'0 0.0
2014-Apr-16 07:33N 40°51' W 072°29'0 0.0
2014-Apr-16 06:33N 40°51' W 072°29'0 0.0
2014-Apr-16 05:33N 40°51' W 072°29'0 0.0
2014-Apr-16 04:33N 40°51' W 072°29'0 0.0
2014-Apr-16 03:33N 40°51' W 072°29'0 0.0
2014-Apr-16 02:33N 40°51' W 072°29'0 0.0
2014-Apr-16 01:33N 40°51' W 072°29'0 0.0
2014-Apr-16 00:33N 40°51' W 072°29'0 0.0
2014-Apr-15 23:33N 40°51' W 072°29'0 0.0
2014-Apr-15 22:33N 40°51' W 072°29'0 0.0
2014-Apr-15 21:33N 40°51' W 072°29'0 0.0
2014-Apr-15 20:33N 40°51' W 072°29'0 0.0
2014-Apr-15 19:34N 40°51' W 072°29'0 0.0
2014-Apr-15 18:34N 40°51' W 072°29'0 0.0
2014-Apr-15 17:33N 40°51' W 072°29'0 0.0
2014-Apr-15 16:33N 40°51' W 072°29'0 0.0
2014-Apr-15 15:33N 40°51' W 072°29'0 0.0
2014-Apr-15 14:33N 40°51' W 072°29'0 0.0
2014-Apr-15 12:34N 40°51' W 072°29'0 0.0
2014-Apr-15 11:34N 40°51' W 072°29'0 0.0
2014-Apr-15 10:34N 40°51' W 072°29'0 0.0
2014-Apr-15 09:34N 40°51' W 072°29'0 0.0
2014-Apr-15 08:34N 40°51' W 072°29'0 0.0
2014-Apr-15 07:34N 40°51' W 072°29'0 0.0
2014-Apr-15 06:34N 40°51' W 072°29'0 0.0
2014-Apr-15 05:34N 40°51' W 072°29'0 0.0
2014-Apr-15 03:34N 40°51' W 072°29'0 0.0
2014-Apr-15 02:34N 40°51' W 072°29'0 0.0
2014-Apr-15 01:34N 40°51' W 072°29'0 0.0
2014-Apr-15 00:34N 40°51' W 072°29'0 0.0
2014-Apr-14 23:34N 40°51' W 072°29'0 0.0
2014-Apr-14 22:34N 40°51' W 072°29'0 0.0
2014-Apr-14 21:34N 40°51' W 072°29'0 0.0
2014-Apr-14 20:34N 40°51' W 072°29'0 0.0
2014-Apr-14 19:34N 40°51' W 072°29'0 0.0
2014-Apr-14 18:34N 40°51' W 072°29'0 0.0
2014-Apr-14 17:33N 40°51' W 072°29'0 0.3
2014-Apr-14 16:34N 40°51' W 072°29'0 0.2
2014-Apr-14 14:34N 40°51' W 072°29'0 0.1
2014-Apr-14 13:34N 40°51' W 072°29'0 0.1
2014-Apr-14 11:34N 40°51' W 072°29'0 0.2
2014-Apr-14 10:34N 40°51' W 072°29'0 0.2
2014-Apr-14 09:34N 40°51' W 072°29'0 0.3
2014-Apr-14 08:33N 40°51' W 072°29'0 0.0
2014-Apr-14 07:33N 40°51' W 072°29'0 0.0
2014-Apr-14 06:33N 40°51' W 072°29'0 0.0
2014-Apr-14 05:33N 40°51' W 072°29'0 0.0
2014-Apr-13 22:30N 40°51' W 072°29'0 0.0
2014-Apr-13 21:16N 40°51' W 072°29'0 0.4
2014-Apr-13 20:33N 40°51' W 072°29'0 0.0
2014-Apr-13 19:31N 40°51' W 072°29'0 0.0
2014-Apr-13 18:33N 40°51' W 072°29'0 0.0
2014-Apr-13 17:34N 40°51' W 072°29'0 0.0
2014-Apr-13 16:33N 40°51' W 072°29'0 0.0
2014-Apr-13 15:33N 40°51' W 072°29'0 0.0
2014-Apr-13 14:33N 40°51' W 072°29'0 0.2
2014-Apr-13 13:33N 40°51' W 072°30'  

Dump ship's entire track history

sailing weather and tide predictions

R.l. Enterkin — WDD9628 — position and weather